createdAt,value
2019-03-06T00:01:45.280Z,70.88
2019-03-06T00:04:16.558Z,70.62
2019-03-06T00:06:48.435Z,70.58
2019-03-06T00:09:19.672Z,70.36
2019-03-06T00:11:50.910Z,70.54
2019-03-06T00:14:22.140Z,69.88
2019-03-06T00:16:53.583Z,70.43
2019-03-06T00:19:25.025Z,69.48
2019-03-06T00:21:56.594Z,69.73
2019-03-06T00:24:27.920Z,68.99
2019-03-06T00:26:59.261Z,69.56
2019-03-06T00:29:30.601Z,69.75
2019-03-06T00:32:01.986Z,69.97
2019-03-06T00:34:33.310Z,69.02
2019-03-06T00:37:04.622Z,70.12
2019-03-06T00:39:37.532Z,69.51
2019-03-06T00:42:08.840Z,69.86
2019-03-06T00:44:40.157Z,69.44
2019-03-06T00:47:11.607Z,69.94
2019-03-06T00:49:43.255Z,70.24
2019-03-06T00:52:14.651Z,70.16
2019-03-06T00:54:46.171Z,69.99
2019-03-06T00:57:17.415Z,69.71
2019-03-06T00:59:48.903Z,70.11
2019-03-06T01:02:20.217Z,69.56
2019-03-06T01:04:51.404Z,69.77
2019-03-06T01:07:22.639Z,69.66
2019-03-06T01:09:53.895Z,70.73
2019-03-06T01:12:25.467Z,69.99
2019-03-06T01:14:57.789Z,70.20
2019-03-06T01:17:29.215Z,70.70
2019-03-06T01:20:00.596Z,70.23
2019-03-06T01:22:32.252Z,69.96
2019-03-06T01:25:03.778Z,69.44
2019-03-06T01:27:35.213Z,69.39
2019-03-06T01:30:12.529Z,69.61
2019-03-06T01:32:44.452Z,69.63
2019-03-06T01:35:24.648Z,70.49
2019-03-06T01:37:57.575Z,69.86
2019-03-06T01:40:39.155Z,69.64
2019-03-06T01:43:17.985Z,69.67
2019-03-06T01:45:49.460Z,70.04
2019-03-06T01:48:20.764Z,70.13
2019-03-06T01:50:52.110Z,70.53
2019-03-06T01:53:23.477Z,69.88
2019-03-06T01:55:55.024Z,69.67
2019-03-06T01:58:26.774Z,69.63
2019-03-06T02:00:58.096Z,69.61
2019-03-06T02:03:29.397Z,69.86
2019-03-06T02:06:00.851Z,69.56
2019-03-06T02:08:32.374Z,69.45
2019-03-06T02:11:03.628Z,69.88
2019-03-06T02:13:34.892Z,69.70
2019-03-06T02:16:06.258Z,69.85
2019-03-06T02:18:37.493Z,69.64
2019-03-06T02:21:08.961Z,69.62
2019-03-06T02:23:40.274Z,69.62
2019-03-06T02:26:11.623Z,69.88
2019-03-06T02:28:43.086Z,69.69
2019-03-06T02:31:14.475Z,69.60
2019-03-06T02:33:45.835Z,70.05
2019-03-06T02:36:17.168Z,69.88
2019-03-06T02:38:48.487Z,69.69
2019-03-06T02:41:20.281Z,69.63
2019-03-06T02:43:51.701Z,69.61
2019-03-06T02:46:23.142Z,69.73
2019-03-06T02:48:54.914Z,69.21
2019-03-06T02:51:26.252Z,70.12
2019-03-06T02:53:57.735Z,69.65
2019-03-06T02:56:29.159Z,69.73
2019-03-06T02:59:02.367Z,70.67
2019-03-06T03:01:44.407Z,69.64
2019-03-06T03:04:20.272Z,69.87
2019-03-06T03:06:53.135Z,69.98
2019-03-06T03:09:24.521Z,70.78
2019-03-06T03:11:56.079Z,70.34
2019-03-06T03:14:27.636Z,69.99
2019-03-06T03:16:59.013Z,70.36
2019-03-06T03:19:30.338Z,70.53
2019-03-06T03:22:01.697Z,71.41
2019-03-06T03:24:33.119Z,70.98
2019-03-06T03:27:04.499Z,70.77
2019-03-06T03:29:35.956Z,70.87
2019-03-06T03:32:07.284Z,70.97
2019-03-06T03:34:38.860Z,70.56
2019-03-06T03:37:10.002Z,70.59
2019-03-06T03:39:41.359Z,70.68
2019-03-06T03:42:12.699Z,71.69
2019-03-06T03:44:44.034Z,71.62
2019-03-06T03:47:15.202Z,71.53
2019-03-06T03:49:46.525Z,71.71
2019-03-06T03:52:17.876Z,70.73
2019-03-06T03:54:49.224Z,70.81
2019-03-06T03:57:20.586Z,70.76
2019-03-06T03:59:51.988Z,70.94
2019-03-06T04:02:23.225Z,70.90
2019-03-06T04:04:54.632Z,71.13
2019-03-06T04:07:26.013Z,70.79
2019-03-06T04:09:57.438Z,70.38
2019-03-06T04:12:28.732Z,70.40
2019-03-06T04:15:01.168Z,70.80
2019-03-06T04:17:32.466Z,70.17
2019-03-06T04:20:04.430Z,70.68
2019-03-06T04:22:35.738Z,70.57
2019-03-06T04:25:08.321Z,71.04
2019-03-06T04:27:39.701Z,71.62
2019-03-06T04:30:16.100Z,71.18
2019-03-06T04:32:47.288Z,70.94
2019-03-06T04:35:18.754Z,71.06
2019-03-06T04:37:51.095Z,70.97
2019-03-06T04:40:22.495Z,70.86
2019-03-06T04:42:53.846Z,70.25
2019-03-06T04:45:25.162Z,70.67
2019-03-06T04:47:56.619Z,70.96
2019-03-06T04:50:27.916Z,71.24
2019-03-06T04:52:59.052Z,70.86
2019-03-06T04:55:30.355Z,70.67
2019-03-06T04:58:02.030Z,71.31
2019-03-06T05:00:33.388Z,70.82
2019-03-06T05:03:04.844Z,71.44
2019-03-06T05:05:36.028Z,70.74
2019-03-06T05:08:07.453Z,70.26
2019-03-06T05:10:38.793Z,69.86
2019-03-06T05:13:10.087Z,69.62
2019-03-06T05:15:41.407Z,69.81
2019-03-06T05:18:31.412Z,69.20
2019-03-06T05:21:02.985Z,69.40
2019-03-06T05:23:34.362Z,68.55
2019-03-06T05:26:05.789Z,68.67
2019-03-06T05:28:37.119Z,68.36
2019-03-06T05:31:08.610Z,68.22
2019-03-06T05:33:39.999Z,67.50
2019-03-06T05:36:23.341Z,67.52
2019-03-06T05:39:09.886Z,67.35
2019-03-06T05:41:41.342Z,66.80
2019-03-06T05:44:12.699Z,66.73
2019-03-06T05:46:44.058Z,66.18
2019-03-06T05:49:15.817Z,66.04
2019-03-06T05:51:47.316Z,66.20
2019-03-06T05:54:21.324Z,64.91
2019-03-06T05:56:53.851Z,65.72
2019-03-06T05:59:25.200Z,65.11
2019-03-06T06:01:56.570Z,64.17
2019-03-06T06:04:27.995Z,64.40
2019-03-06T06:06:59.632Z,63.88
2019-03-06T06:09:31.260Z,63.73
2019-03-06T06:12:02.895Z,62.92
2019-03-06T06:14:34.351Z,62.20
2019-03-06T06:17:05.696Z,63.04
2019-03-06T06:19:37.508Z,62.13
2019-03-06T06:22:13.662Z,62.13
2019-03-06T06:24:45.178Z,61.64
2019-03-06T06:27:16.619Z,61.28
2019-03-06T06:29:48.188Z,61.25
2019-03-06T06:32:19.547Z,60.13
2019-03-06T06:34:50.909Z,59.88
2019-03-06T06:37:22.220Z,60.59
2019-03-06T06:39:53.626Z,60.15
2019-03-06T06:42:26.080Z,58.54
2019-03-06T06:44:57.342Z,58.83
2019-03-06T06:47:28.652Z,58.13
2019-03-06T06:50:00.139Z,57.72
2019-03-06T06:52:43.482Z,57.91
2019-03-06T06:55:18.927Z,57.09
2019-03-06T06:58:17.274Z,57.08
2019-03-06T07:01:11.567Z,56.48
2019-03-06T07:04:09.537Z,55.89
2019-03-06T07:06:42.443Z,56.14
2019-03-06T07:09:27.884Z,55.94
2019-03-06T07:12:03.583Z,55.09
2019-03-06T07:14:39.119Z,55.22
2019-03-06T07:17:12.030Z,54.59
2019-03-06T07:19:53.760Z,55.12
2019-03-06T07:22:33.183Z,54.38
2019-03-06T07:25:23.563Z,54.32
2019-03-06T07:27:59.401Z,53.54
2019-03-06T07:30:48.465Z,54.01
2019-03-06T07:33:28.723Z,52.99
2019-03-06T07:36:17.929Z,53.28
2019-03-06T07:38:50.536Z,52.84
2019-03-06T07:41:26.488Z,52.54
2019-03-06T07:43:59.388Z,52.71
2019-03-06T07:46:32.355Z,52.40
2019-03-06T07:49:17.898Z,52.45
2019-03-06T07:52:02.787Z,51.40
2019-03-06T07:54:41.911Z,50.46
2019-03-06T07:57:14.907Z,50.43
2019-03-06T07:59:46.761Z,50.00
2019-03-06T08:02:24.300Z,49.13
2019-03-06T08:04:55.933Z,49.46
2019-03-06T08:07:26.970Z,48.94
2019-03-06T08:09:58.109Z,48.63
2019-03-06T08:12:33.892Z,48.42
2019-03-06T08:15:09.483Z,48.15
2019-03-06T08:17:42.588Z,47.97
2019-03-06T08:20:32.006Z,47.62
2019-03-06T08:23:16.835Z,48.09
2019-03-06T08:25:49.917Z,48.12
2019-03-06T08:28:21.508Z,47.59
2019-03-06T08:30:54.673Z,47.11
2019-03-06T08:33:26.689Z,47.09
2019-03-06T08:35:58.135Z,47.93
2019-03-06T08:38:29.439Z,47.20
2019-03-06T08:41:04.516Z,46.62
2019-03-06T08:43:33.794Z,46.50
2019-03-06T08:46:18.840Z,45.65
2019-03-06T08:48:51.877Z,46.06
2019-03-06T08:51:24.887Z,46.57
2019-03-06T08:54:03.824Z,45.81
2019-03-06T08:56:42.695Z,45.91
2019-03-06T08:59:15.732Z,46.79
2019-03-06T09:02:00.458Z,45.75
2019-03-06T09:04:37.143Z,45.35
2019-03-06T09:07:18.962Z,45.41
2019-03-06T09:10:06.951Z,44.69
2019-03-06T09:12:58.053Z,45.03
2019-03-06T09:15:33.740Z,45.08
2019-03-06T09:18:22.009Z,45.06
2019-03-06T09:20:54.945Z,45.02
2019-03-06T09:23:30.652Z,44.81
2019-03-06T09:26:06.405Z,44.80
2019-03-06T09:29:01.007Z,43.94
2019-03-06T09:31:36.161Z,42.22
2019-03-06T09:34:09.186Z,42.58
2019-03-06T09:36:44.941Z,41.03
2019-03-06T09:39:33.792Z,40.81
2019-03-06T09:42:06.688Z,39.98
2019-03-06T09:44:42.655Z,39.79
2019-03-06T09:47:15.624Z,39.74
2019-03-06T09:49:51.212Z,39.35
2019-03-06T09:52:25.122Z,38.10
2019-03-06T09:55:11.512Z,37.35
2019-03-06T09:57:47.560Z,38.11
2019-03-06T10:00:29.275Z,36.59
2019-03-06T10:03:05.148Z,37.44
2019-03-06T10:05:50.179Z,37.80
2019-03-06T10:08:32.013Z,38.31
2019-03-06T10:11:17.201Z,37.59
2019-03-06T10:14:02.428Z,37.08
2019-03-06T10:16:48.654Z,36.69
2019-03-06T10:19:18.502Z,36.20
2019-03-06T10:21:49.853Z,35.06
2019-03-06T10:24:21.207Z,35.67
2019-03-06T10:26:52.564Z,35.62
2019-03-06T10:29:24.155Z,35.56
2019-03-06T10:31:55.510Z,35.84
2019-03-06T10:34:27.067Z,35.45
2019-03-06T10:36:58.386Z,35.20
2019-03-06T10:39:29.863Z,33.98
2019-03-06T10:42:01.334Z,33.69
2019-03-06T10:44:32.779Z,33.99
2019-03-06T10:47:04.228Z,34.35
2019-03-06T10:49:35.692Z,35.12
2019-03-06T10:52:06.946Z,34.65
2019-03-06T10:54:44.940Z,34.50
2019-03-06T10:57:20.430Z,34.57
2019-03-06T10:59:54.899Z,34.09
2019-03-06T11:02:26.180Z,34.18
2019-03-06T11:04:59.144Z,35.14
2019-03-06T11:07:30.479Z,36.48
2019-03-06T11:10:01.722Z,36.15
2019-03-06T11:12:33.161Z,35.57
2019-03-06T11:15:08.113Z,33.61
2019-03-06T11:17:39.421Z,33.54
2019-03-06T11:20:20.376Z,34.29
2019-03-06T11:22:54.293Z,33.72
2019-03-06T11:25:29.074Z,33.08
2019-03-06T11:28:08.287Z,32.89
2019-03-06T11:30:48.429Z,32.03
2019-03-06T11:33:22.604Z,31.77
2019-03-06T11:35:58.833Z,31.85
2019-03-06T11:38:30.191Z,31.28
2019-03-06T11:41:01.956Z,31.77
2019-03-06T11:43:33.499Z,31.66
2019-03-06T11:46:06.013Z,30.84
2019-03-06T11:48:37.517Z,30.74
2019-03-06T11:51:09.045Z,30.33
2019-03-06T11:53:40.383Z,30.01
2019-03-06T11:56:11.872Z,30.11
2019-03-06T11:58:43.387Z,30.38
2019-03-06T12:01:19.825Z,30.56
2019-03-06T12:03:51.443Z,30.37
2019-03-06T12:06:23.215Z,30.11
2019-03-06T12:08:54.585Z,30.29
2019-03-06T12:11:25.854Z,30.63
2019-03-06T12:13:57.348Z,30.67
2019-03-06T12:16:28.696Z,31.34
2019-03-06T12:19:00.041Z,31.23
2019-03-06T12:21:32.547Z,31.67
2019-03-06T12:24:03.941Z,32.11
2019-03-06T12:26:35.188Z,31.38
2019-03-06T12:29:06.631Z,31.61
2019-03-06T12:31:37.952Z,31.43
2019-03-06T12:34:09.283Z,32.39
2019-03-06T12:36:40.635Z,32.11
2019-03-06T12:39:12.029Z,32.10
2019-03-06T12:41:45.016Z,31.57
2019-03-06T12:44:16.392Z,32.46
2019-03-06T12:46:47.708Z,32.93
2019-03-06T12:49:19.173Z,33.30
2019-03-06T12:51:54.326Z,32.37
2019-03-06T12:54:23.641Z,33.65
2019-03-06T12:56:55.010Z,33.50
2019-03-06T12:59:26.299Z,34.18
2019-03-06T13:01:58.018Z,34.05
2019-03-06T13:04:29.605Z,33.26
2019-03-06T13:07:01.250Z,33.98
2019-03-06T13:09:32.984Z,34.34
2019-03-06T13:12:05.322Z,34.53
2019-03-06T13:14:36.991Z,34.47
2019-03-06T13:17:08.363Z,34.64
2019-03-06T13:19:51.494Z,35.03
2019-03-06T13:22:32.290Z,35.13
2019-03-06T13:25:03.808Z,35.73
2019-03-06T13:27:35.278Z,36.16
2019-03-06T13:30:09.918Z,36.27
2019-03-06T13:32:59.055Z,36.57
2019-03-06T13:35:33.607Z,36.25
2019-03-06T13:38:04.883Z,36.22
2019-03-06T13:40:36.368Z,36.98
2019-03-06T13:43:07.656Z,36.63
2019-03-06T13:45:39.074Z,36.55
2019-03-06T13:48:10.397Z,36.90
2019-03-06T13:50:41.740Z,37.41
2019-03-06T13:53:20.375Z,37.87
2019-03-06T13:55:52.255Z,37.54
2019-03-06T13:58:23.536Z,38.48
2019-03-06T14:00:55.393Z,38.56
2019-03-06T14:03:26.234Z,38.48
2019-03-06T14:05:58.385Z,38.95
2019-03-06T14:08:29.816Z,38.74
2019-03-06T14:11:01.277Z,39.37
2019-03-06T14:13:32.618Z,39.64
2019-03-06T14:16:04.434Z,39.97
2019-03-06T14:18:35.847Z,40.20
2019-03-06T14:21:06.925Z,40.38
2019-03-06T14:23:38.241Z,40.60
2019-03-06T14:26:09.689Z,40.41
2019-03-06T14:28:40.991Z,40.78
2019-03-06T14:31:12.976Z,40.50
2019-03-06T14:33:44.416Z,40.89
2019-03-06T14:36:15.792Z,41.08
2019-03-06T14:38:47.059Z,40.86
2019-03-06T14:41:18.434Z,40.82
2019-03-06T14:43:49.758Z,40.30
2019-03-06T14:46:21.279Z,40.94
2019-03-06T14:48:53.816Z,41.19
2019-03-06T14:51:25.165Z,40.62
2019-03-06T14:53:56.584Z,40.92
2019-03-06T14:56:28.244Z,40.84
2019-03-06T14:59:00.135Z,41.05
2019-03-06T15:01:31.595Z,41.14
2019-03-06T15:04:03.062Z,40.94
2019-03-06T15:06:35.211Z,41.72
2019-03-06T15:09:22.900Z,42.11
2019-03-06T15:11:54.285Z,42.29
2019-03-06T15:14:38.675Z,42.47
2019-03-06T15:17:22.517Z,42.74
2019-03-06T15:19:54.073Z,43.03
2019-03-06T15:22:26.534Z,43.97
2019-03-06T15:24:57.901Z,43.85
2019-03-06T15:27:29.291Z,44.18
2019-03-06T15:30:00.939Z,44.34
2019-03-06T15:32:34.160Z,43.98
2019-03-06T15:35:05.836Z,44.24
2019-03-06T15:37:37.278Z,44.74
2019-03-06T15:40:22.362Z,44.21
2019-03-06T15:42:54.084Z,44.86
2019-03-06T15:45:26.916Z,44.90
2019-03-06T15:47:59.451Z,45.60
2019-03-06T15:50:31.034Z,45.41
2019-03-06T15:53:02.373Z,45.63
2019-03-06T15:55:34.846Z,45.60
2019-03-06T15:58:06.355Z,45.73
2019-03-06T16:00:46.208Z,45.76
2019-03-06T16:03:13.956Z,45.61
2019-03-06T16:05:45.320Z,45.95
2019-03-06T16:08:16.796Z,46.60
2019-03-06T16:10:48.557Z,46.87
2019-03-06T16:13:20.415Z,46.99
2019-03-06T16:15:51.686Z,47.33
2019-03-06T16:18:25.846Z,46.84
2019-03-06T16:20:57.332Z,47.36
2019-03-06T16:23:32.241Z,46.96
2019-03-06T16:26:12.484Z,47.23
2019-03-06T16:28:48.891Z,47.00
2019-03-06T16:31:30.637Z,47.22
2019-03-06T16:34:04.601Z,47.55
2019-03-06T16:36:37.564Z,47.42
2019-03-06T16:39:08.925Z,47.56
2019-03-06T16:41:42.195Z,47.62
2019-03-06T16:44:13.651Z,47.53
2019-03-06T16:46:44.914Z,47.56
2019-03-06T16:49:16.261Z,47.42
2019-03-06T16:51:49.269Z,47.41
2019-03-06T16:54:27.589Z,47.87
2019-03-06T16:57:05.815Z,47.98
2019-03-06T16:59:40.063Z,48.24
2019-03-06T17:02:14.484Z,48.06
2019-03-06T17:04:47.432Z,48.40
2019-03-06T17:07:18.931Z,48.43
2019-03-06T17:09:50.303Z,49.39
2019-03-06T17:12:29.159Z,49.71
2019-03-06T17:15:00.871Z,49.95
2019-03-06T17:17:32.540Z,50.96
2019-03-06T17:20:05.046Z,51.07
2019-03-06T17:22:36.413Z,51.72
2019-03-06T17:25:08.058Z,51.34
2019-03-06T17:27:39.376Z,51.84
2019-03-06T17:30:13.581Z,52.06
2019-03-06T17:32:53.870Z,52.14
2019-03-06T17:35:25.669Z,52.20
2019-03-06T17:37:56.926Z,52.29
2019-03-06T17:40:29.259Z,52.66
2019-03-06T17:43:01.813Z,52.74
2019-03-06T17:45:33.217Z,52.80
2019-03-06T17:48:05.196Z,52.56
2019-03-06T17:50:36.731Z,52.79
2019-03-06T17:53:09.035Z,53.38
2019-03-06T17:55:40.534Z,53.84
2019-03-06T17:58:11.945Z,53.57
2019-03-06T18:00:44.912Z,53.94
2019-03-06T18:03:18.010Z,53.91
2019-03-06T18:05:50.881Z,54.43
2019-03-06T18:08:22.298Z,55.30
2019-03-06T18:10:53.743Z,55.05
2019-03-06T18:13:25.305Z,55.46
2019-03-06T18:15:56.678Z,54.91
2019-03-06T18:18:29.215Z,55.13
2019-03-06T18:21:00.807Z,55.29
2019-03-06T18:23:34.386Z,56.14
2019-03-06T18:26:06.235Z,56.08
2019-03-06T18:28:37.699Z,56.00
2019-03-06T18:31:09.014Z,56.09
2019-03-06T18:33:40.486Z,55.92
2019-03-06T18:36:13.023Z,56.11
2019-03-06T18:38:44.507Z,56.59
2019-03-06T18:41:15.891Z,56.27
2019-03-06T18:43:50.248Z,56.74
2019-03-06T18:46:23.334Z,56.61
2019-03-06T18:48:54.584Z,56.92
2019-03-06T18:51:26.077Z,56.78
2019-03-06T18:53:57.516Z,56.68
2019-03-06T18:56:28.888Z,56.74
2019-03-06T18:59:00.281Z,55.59
2019-03-06T19:01:31.594Z,56.39
2019-03-06T19:04:02.968Z,55.89
2019-03-06T19:06:37.515Z,56.16
2019-03-06T19:09:08.891Z,55.83
2019-03-06T19:11:40.591Z,55.89
2019-03-06T19:14:21.957Z,55.80
2019-03-06T19:16:53.600Z,55.71
2019-03-06T19:19:24.982Z,55.91
2019-03-06T19:21:56.330Z,56.46
2019-03-06T19:24:34.455Z,56.60
2019-03-06T19:27:06.183Z,56.17
2019-03-06T19:29:37.628Z,56.62
2019-03-06T19:32:09.002Z,56.59
2019-03-06T19:34:40.427Z,56.93
2019-03-06T19:37:11.938Z,57.02
2019-03-06T19:39:43.233Z,57.26
2019-03-06T19:42:14.550Z,56.34
2019-03-06T19:44:45.885Z,56.84
2019-03-06T19:47:17.435Z,56.79
2019-03-06T19:49:48.697Z,57.21
2019-03-06T19:52:20.041Z,56.80
2019-03-06T19:54:51.468Z,56.81
2019-03-06T19:57:22.925Z,57.00
2019-03-06T19:59:54.561Z,57.54
2019-03-06T20:02:26.030Z,58.10
2019-03-06T20:04:57.389Z,57.84
2019-03-06T20:07:28.568Z,58.23
2019-03-06T20:09:59.964Z,58.97
2019-03-06T20:12:32.593Z,59.18
2019-03-06T20:15:05.179Z,59.44
2019-03-06T20:17:36.535Z,59.49
2019-03-06T20:20:10.504Z,60.08
2019-03-06T20:22:41.858Z,60.47
2019-03-06T20:25:13.582Z,60.42
2019-03-06T20:27:45.162Z,61.25
2019-03-06T20:30:18.491Z,61.52
2019-03-06T20:32:49.840Z,62.14
2019-03-06T20:35:22.610Z,62.02
2019-03-06T20:37:53.999Z,62.08
2019-03-06T20:40:25.455Z,62.93
2019-03-06T20:42:57.043Z,63.28
2019-03-06T20:45:28.465Z,63.92
2019-03-06T20:47:59.748Z,63.25
2019-03-06T20:50:31.295Z,63.90
2019-03-06T20:53:02.508Z,64.44
2019-03-06T20:55:33.817Z,65.25
2019-03-06T20:58:05.560Z,64.72
2019-03-06T21:00:36.904Z,65.55
2019-03-06T21:03:08.309Z,65.24
2019-03-06T21:05:39.676Z,66.13
2019-03-06T21:08:11.176Z,65.98
2019-03-06T21:10:43.587Z,66.91
2019-03-06T21:13:16.534Z,67.68
2019-03-06T21:15:48.148Z,68.13
2019-03-06T21:18:19.621Z,67.33
2019-03-06T21:20:52.145Z,68.06
2019-03-06T21:23:23.374Z,68.72
2019-03-06T21:25:54.822Z,68.72
2019-03-06T21:28:26.136Z,68.47
2019-03-06T21:30:57.495Z,68.05
2019-03-06T21:33:28.850Z,67.79
2019-03-06T21:36:01.895Z,68.38
2019-03-06T21:38:33.256Z,67.80
2019-03-06T21:41:04.749Z,67.26
2019-03-06T21:43:36.214Z,66.34
2019-03-06T21:46:07.542Z,66.70
2019-03-06T21:48:39.020Z,66.47
2019-03-06T21:51:10.501Z,66.60
2019-03-06T21:53:41.850Z,66.55
2019-03-06T21:56:13.186Z,66.67
2019-03-06T21:58:44.518Z,67.38
2019-03-06T22:01:16.331Z,66.99
2019-03-06T22:03:47.650Z,66.60
2019-03-06T22:06:18.965Z,67.58
2019-03-06T22:08:50.435Z,66.59
2019-03-06T22:11:21.858Z,65.75
2019-03-06T22:13:53.573Z,65.37
2019-03-06T22:16:24.956Z,64.99
2019-03-06T22:18:56.174Z,63.93
2019-03-06T22:21:27.376Z,64.51
2019-03-06T22:23:58.658Z,64.05
2019-03-06T22:26:30.144Z,63.38
2019-03-06T22:29:01.720Z,63.63
2019-03-06T22:31:32.955Z,63.22
2019-03-06T22:34:04.429Z,62.65
2019-03-06T22:36:35.740Z,62.85
2019-03-06T22:39:08.303Z,63.28
2019-03-06T22:41:39.774Z,62.99
2019-03-06T22:44:11.073Z,62.64
2019-03-06T22:46:42.331Z,62.76
2019-03-06T22:49:13.718Z,62.11
2019-03-06T22:51:45.617Z,61.25
2019-03-06T22:54:17.010Z,61.80
2019-03-06T22:56:48.476Z,61.53
2019-03-06T22:59:19.773Z,61.43
2019-03-06T23:01:53.163Z,61.66
2019-03-06T23:04:24.280Z,61.65
2019-03-06T23:06:55.632Z,62.14
2019-03-06T23:09:27.106Z,62.38
2019-03-06T23:11:58.507Z,62.30
2019-03-06T23:14:29.961Z,62.86
2019-03-06T23:17:01.433Z,62.59
2019-03-06T23:19:32.856Z,62.03
2019-03-06T23:22:05.713Z,62.32
2019-03-06T23:24:37.047Z,62.47
2019-03-06T23:27:09.871Z,62.60
2019-03-06T23:29:41.318Z,62.61
2019-03-06T23:32:12.728Z,62.41
2019-03-06T23:34:44.059Z,62.51
2019-03-06T23:37:15.364Z,62.14
2019-03-06T23:39:46.895Z,62.97
2019-03-06T23:42:18.223Z,63.16
2019-03-06T23:44:49.483Z,63.56
2019-03-06T23:47:20.847Z,64.33
2019-03-06T23:49:52.155Z,63.96
2019-03-06T23:52:25.095Z,63.96
2019-03-06T23:54:56.558Z,63.87
2019-03-06T23:57:27.906Z,63.71
2019-03-06T23:59:59.281Z,63.53
